sensor_id;sensor_type;location;lat;lon;timestamp;P1;durP1;ratioP1;P2;durP2;ratioP2
65558;SDS011;52203;51.998;5.140;2023-04-30T00:00:18;12.15;;;6.03;;
65558;SDS011;52203;51.998;5.140;2023-04-30T00:02:44;9.18;;;4.82;;
65558;SDS011;52203;51.998;5.140;2023-04-30T00:05:10;11.10;;;5.60;;
65558;SDS011;52203;51.998;5.140;2023-04-30T00:07:35;14.23;;;6.05;;
65558;SDS011;52203;51.998;5.140;2023-04-30T00:10:01;11.63;;;6.00;;
65558;SDS011;52203;51.998;5.140;2023-04-30T00:12:27;12.70;;;6.10;;
65558;SDS011;52203;51.998;5.140;2023-04-30T00:14:52;12.88;;;6.47;;
65558;SDS011;52203;51.998;5.140;2023-04-30T00:17:20;18.90;;;7.13;;
65558;SDS011;52203;51.998;5.140;2023-04-30T00:19:45;17.92;;;7.35;;
65558;SDS011;52203;51.998;5.140;2023-04-30T00:22:11;13.15;;;6.57;;
65558;SDS011;52203;51.998;5.140;2023-04-30T00:24:36;15.18;;;6.53;;
65558;SDS011;52203;51.998;5.140;2023-04-30T00:27:02;15.02;;;6.10;;
65558;SDS011;52203;51.998;5.140;2023-04-30T00:29:28;13.50;;;6.68;;
65558;SDS011;52203;51.998;5.140;2023-04-30T00:31:53;13.40;;;6.28;;
65558;SDS011;52203;51.998;5.140;2023-04-30T00:34:19;14.35;;;5.85;;
65558;SDS011;52203;51.998;5.140;2023-04-30T00:36:44;11.57;;;6.20;;
65558;SDS011;52203;51.998;5.140;2023-04-30T00:39:10;12.48;;;5.63;;
65558;SDS011;52203;51.998;5.140;2023-04-30T00:41:35;14.32;;;6.50;;
65558;SDS011;52203;51.998;5.140;2023-04-30T00:44:02;14.75;;;6.68;;
65558;SDS011;52203;51.998;5.140;2023-04-30T00:46:28;15.10;;;6.93;;
65558;SDS011;52203;51.998;5.140;2023-04-30T00:48:53;15.73;;;7.10;;
65558;SDS011;52203;51.998;5.140;2023-04-30T00:51:19;14.63;;;6.15;;
65558;SDS011;52203;51.998;5.140;2023-04-30T00:53:45;13.43;;;6.55;;
65558;SDS011;52203;51.998;5.140;2023-04-30T00:56:10;11.70;;;5.78;;
65558;SDS011;52203;51.998;5.140;2023-04-30T00:58:40;16.20;;;6.80;;
65558;SDS011;52203;51.998;5.140;2023-04-30T01:01:11;16.40;;;6.35;;
65558;SDS011;52203;51.998;5.140;2023-04-30T01:03:38;16.05;;;7.55;;
65558;SDS011;52203;51.998;5.140;2023-04-30T01:06:04;17.58;;;8.10;;
65558;SDS011;52203;51.998;5.140;2023-04-30T01:08:30;16.27;;;7.07;;
65558;SDS011;52203;51.998;5.140;2023-04-30T01:13:28;13.20;;;6.70;;
65558;SDS011;52203;51.998;5.140;2023-04-30T01:16:12;14.93;;;7.07;;
65558;SDS011;52203;51.998;5.140;2023-04-30T01:18:46;16.65;;;8.57;;
65558;SDS011;52203;51.998;5.140;2023-04-30T01:21:17;18.48;;;7.93;;
65558;SDS011;52203;51.998;5.140;2023-04-30T01:26:18;11.52;;;6.03;;
65558;SDS011;52203;51.998;5.140;2023-04-30T01:29:04;14.85;;;6.60;;
65558;SDS011;52203;51.998;5.140;2023-04-30T01:31:32;12.45;;;6.18;;
65558;SDS011;52203;51.998;5.140;2023-04-30T01:33:57;14.52;;;6.50;;
65558;SDS011;52203;51.998;5.140;2023-04-30T01:36:42;14.70;;;7.20;;
65558;SDS011;52203;51.998;5.140;2023-04-30T01:42:21;13.88;;;6.65;;
65558;SDS011;52203;51.998;5.140;2023-04-30T01:48:13;12.75;;;5.47;;
65558;SDS011;52203;51.998;5.140;2023-04-30T01:54:35;11.90;;;5.55;;
65558;SDS011;52203;51.998;5.140;2023-04-30T01:57:36;14.82;;;6.35;;
65558;SDS011;52203;51.998;5.140;2023-04-30T02:02:55;12.07;;;6.75;;
65558;SDS011;52203;51.998;5.140;2023-04-30T02:05:32;12.50;;;5.90;;
65558;SDS011;52203;51.998;5.140;2023-04-30T02:07:58;13.13;;;6.32;;
65558;SDS011;52203;51.998;5.140;2023-04-30T02:10:27;16.52;;;7.78;;
65558;SDS011;52203;51.998;5.140;2023-04-30T02:13:02;18.60;;;7.30;;
65558;SDS011;52203;51.998;5.140;2023-04-30T02:15:31;14.63;;;6.43;;
65558;SDS011;52203;51.998;5.140;2023-04-30T02:17:57;13.73;;;6.75;;
65558;SDS011;52203;51.998;5.140;2023-04-30T02:20:22;14.05;;;6.80;;
65558;SDS011;52203;51.998;5.140;2023-04-30T02:22:48;18.33;;;8.40;;
65558;SDS011;52203;51.998;5.140;2023-04-30T02:25:14;18.02;;;7.72;;
65558;SDS011;52203;51.998;5.140;2023-04-30T02:27:43;16.67;;;8.10;;
65558;SDS011;52203;51.998;5.140;2023-04-30T02:30:08;17.42;;;7.32;;
65558;SDS011;52203;51.998;5.140;2023-04-30T02:32:34;17.30;;;8.20;;
65558;SDS011;52203;51.998;5.140;2023-04-30T02:35:00;16.80;;;7.65;;
65558;SDS011;52203;51.998;5.140;2023-04-30T02:37:25;16.38;;;7.93;;
65558;SDS011;52203;51.998;5.140;2023-04-30T02:39:51;16.75;;;8.77;;
65558;SDS011;52203;51.998;5.140;2023-04-30T02:42:17;14.85;;;7.38;;
65558;SDS011;52203;51.998;5.140;2023-04-30T02:44:43;21.05;;;8.63;;
65558;SDS011;52203;51.998;5.140;2023-04-30T02:47:11;17.80;;;8.15;;
65558;SDS011;52203;51.998;5.140;2023-04-30T02:49:36;17.77;;;8.05;;
65558;SDS011;52203;51.998;5.140;2023-04-30T02:52:02;15.75;;;8.27;;
65558;SDS011;52203;51.998;5.140;2023-04-30T02:54:28;17.60;;;8.18;;
65558;SDS011;52203;51.998;5.140;2023-04-30T02:56:53;16.95;;;7.90;;
65558;SDS011;52203;51.998;5.140;2023-04-30T02:59:19;17.50;;;7.82;;
65558;SDS011;52203;51.998;5.140;2023-04-30T03:01:44;16.45;;;7.82;;
65558;SDS011;52203;51.998;5.140;2023-04-30T03:04:10;15.98;;;7.45;;
65558;SDS011;52203;51.998;5.140;2023-04-30T03:06:35;15.60;;;7.68;;
65558;SDS011;52203;51.998;5.140;2023-04-30T03:09:01;17.80;;;8.27;;
65558;SDS011;52203;51.998;5.140;2023-04-30T03:11:26;17.67;;;8.13;;
65558;SDS011;52203;51.998;5.140;2023-04-30T03:13:52;15.80;;;7.57;;
65558;SDS011;52203;51.998;5.140;2023-04-30T03:16:18;16.65;;;8.27;;
65558;SDS011;52203;51.998;5.140;2023-04-30T03:18:45;14.07;;;7.32;;
65558;SDS011;52203;51.998;5.140;2023-04-30T03:21:11;19.00;;;8.68;;
65558;SDS011;52203;51.998;5.140;2023-04-30T03:23:37;19.83;;;8.50;;
65558;SDS011;52203;51.998;5.140;2023-04-30T03:26:03;15.00;;;7.35;;
65558;SDS011;52203;51.998;5.140;2023-04-30T03:28:28;16.25;;;8.45;;
65558;SDS011;52203;51.998;5.140;2023-04-30T03:30:54;14.38;;;7.82;;
65558;SDS011;52203;51.998;5.140;2023-04-30T03:33:19;15.38;;;7.63;;
65558;SDS011;52203;51.998;5.140;2023-04-30T03:35:45;16.10;;;8.98;;
65558;SDS011;52203;51.998;5.140;2023-04-30T03:38:11;18.83;;;7.22;;
65558;SDS011;52203;51.998;5.140;2023-04-30T03:40:36;14.50;;;7.22;;
65558;SDS011;52203;51.998;5.140;2023-04-30T03:43:02;18.88;;;8.52;;
65558;SDS011;52203;51.998;5.140;2023-04-30T03:45:27;14.18;;;7.53;;
65558;SDS011;52203;51.998;5.140;2023-04-30T03:47:53;16.45;;;7.63;;
65558;SDS011;52203;51.998;5.140;2023-04-30T03:50:19;15.65;;;7.82;;
65558;SDS011;52203;51.998;5.140;2023-04-30T03:52:45;17.40;;;8.50;;
65558;SDS011;52203;51.998;5.140;2023-04-30T03:55:10;15.48;;;7.75;;
65558;SDS011;52203;51.998;5.140;2023-04-30T03:57:37;17.20;;;8.10;;
65558;SDS011;52203;51.998;5.140;2023-04-30T04:00:05;16.23;;;7.28;;
65558;SDS011;52203;51.998;5.140;2023-04-30T04:02:34;15.55;;;7.22;;
65558;SDS011;52203;51.998;5.140;2023-04-30T04:05:06;14.45;;;7.30;;
65558;SDS011;52203;51.998;5.140;2023-04-30T04:07:37;14.35;;;7.05;;
65558;SDS011;52203;51.998;5.140;2023-04-30T04:10:06;16.80;;;7.30;;
65558;SDS011;52203;51.998;5.140;2023-04-30T04:12:32;14.55;;;6.90;;
65558;SDS011;52203;51.998;5.140;2023-04-30T04:14:57;14.98;;;7.90;;
65558;SDS011;52203;51.998;5.140;2023-04-30T04:17:23;11.98;;;6.70;;
65558;SDS011;52203;51.998;5.140;2023-04-30T04:19:48;13.18;;;6.88;;
65558;SDS011;52203;51.998;5.140;2023-04-30T04:22:14;14.13;;;7.07;;
65558;SDS011;52203;51.998;5.140;2023-04-30T04:24:45;13.32;;;7.18;;
65558;SDS011;52203;51.998;5.140;2023-04-30T04:27:11;13.63;;;6.38;;
65558;SDS011;52203;51.998;5.140;2023-04-30T04:29:44;15.75;;;6.97;;
65558;SDS011;52203;51.998;5.140;2023-04-30T04:32:10;13.60;;;6.60;;
65558;SDS011;52203;51.998;5.140;2023-04-30T04:34:35;13.70;;;6.43;;
65558;SDS011;52203;51.998;5.140;2023-04-30T04:37:02;11.48;;;5.68;;
65558;SDS011;52203;51.998;5.140;2023-04-30T04:39:28;12.32;;;6.40;;
65558;SDS011;52203;51.998;5.140;2023-04-30T04:41:53;13.88;;;7.05;;
65558;SDS011;52203;51.998;5.140;2023-04-30T04:44:19;15.63;;;7.45;;
65558;SDS011;52203;51.998;5.140;2023-04-30T04:46:45;13.85;;;7.13;;
65558;SDS011;52203;51.998;5.140;2023-04-30T04:49:11;17.55;;;7.22;;
65558;SDS011;52203;51.998;5.140;2023-04-30T04:51:37;12.10;;;6.53;;
65558;SDS011;52203;51.998;5.140;2023-04-30T04:54:03;15.05;;;7.68;;
65558;SDS011;52203;51.998;5.140;2023-04-30T04:56:29;15.23;;;7.68;;
65558;SDS011;52203;51.998;5.140;2023-04-30T04:58:55;13.68;;;6.80;;
65558;SDS011;52203;51.998;5.140;2023-04-30T05:01:21;16.60;;;7.95;;
65558;SDS011;52203;51.998;5.140;2023-04-30T05:03:46;13.70;;;7.13;;
65558;SDS011;52203;51.998;5.140;2023-04-30T05:06:13;14.98;;;7.28;;
65558;SDS011;52203;51.998;5.140;2023-04-30T05:08:38;12.32;;;6.72;;
65558;SDS011;52203;51.998;5.140;2023-04-30T05:11:04;14.68;;;7.30;;
65558;SDS011;52203;51.998;5.140;2023-04-30T05:13:29;15.15;;;7.10;;
65558;SDS011;52203;51.998;5.140;2023-04-30T05:15:55;12.20;;;6.82;;
65558;SDS011;52203;51.998;5.140;2023-04-30T05:18:20;16.27;;;7.05;;
65558;SDS011;52203;51.998;5.140;2023-04-30T05:20:46;17.77;;;7.65;;
65558;SDS011;52203;51.998;5.140;2023-04-30T05:23:12;14.85;;;7.32;;
65558;SDS011;52203;51.998;5.140;2023-04-30T05:25:38;12.02;;;7.10;;
65558;SDS011;52203;51.998;5.140;2023-04-30T05:28:04;14.13;;;7.03;;
65558;SDS011;52203;51.998;5.140;2023-04-30T05:30:30;15.27;;;6.85;;
65558;SDS011;52203;51.998;5.140;2023-04-30T05:32:56;14.32;;;7.25;;
65558;SDS011;52203;51.998;5.140;2023-04-30T05:35:22;11.50;;;6.68;;
65558;SDS011;52203;51.998;5.140;2023-04-30T05:37:47;15.60;;;7.18;;
65558;SDS011;52203;51.998;5.140;2023-04-30T05:40:13;16.13;;;7.93;;
65558;SDS011;52203;51.998;5.140;2023-04-30T05:42:39;12.20;;;6.50;;
65558;SDS011;52203;51.998;5.140;2023-04-30T05:45:07;12.18;;;6.72;;
65558;SDS011;52203;51.998;5.140;2023-04-30T05:47:34;13.25;;;6.45;;
65558;SDS011;52203;51.998;5.140;2023-04-30T05:49:59;10.13;;;5.10;;
65558;SDS011;52203;51.998;5.140;2023-04-30T05:52:25;11.93;;;6.47;;
65558;SDS011;52203;51.998;5.140;2023-04-30T05:54:50;10.00;;;5.63;;
65558;SDS011;52203;51.998;5.140;2023-04-30T05:57:16;9.73;;;5.22;;
65558;SDS011;52203;51.998;5.140;2023-04-30T05:59:41;9.60;;;5.38;;
65558;SDS011;52203;51.998;5.140;2023-04-30T06:02:07;8.00;;;5.40;;
65558;SDS011;52203;51.998;5.140;2023-04-30T06:04:33;9.13;;;5.18;;
65558;SDS011;52203;51.998;5.140;2023-04-30T06:06:58;9.98;;;5.35;;
65558;SDS011;52203;51.998;5.140;2023-04-30T06:09:24;10.02;;;4.97;;
65558;SDS011;52203;51.998;5.140;2023-04-30T06:11:50;8.85;;;5.20;;
65558;SDS011;52203;51.998;5.140;2023-04-30T06:14:16;9.75;;;5.50;;
65558;SDS011;52203;51.998;5.140;2023-04-30T06:16:45;8.98;;;4.90;;
65558;SDS011;52203;51.998;5.140;2023-04-30T06:19:11;9.85;;;5.13;;
65558;SDS011;52203;51.998;5.140;2023-04-30T06:21:37;10.48;;;4.93;;
65558;SDS011;52203;51.998;5.140;2023-04-30T06:24:03;10.30;;;5.30;;
65558;SDS011;52203;51.998;5.140;2023-04-30T06:26:29;8.95;;;5.03;;
65558;SDS011;52203;51.998;5.140;2023-04-30T06:28:55;8.32;;;4.68;;
65558;SDS011;52203;51.998;5.140;2023-04-30T06:31:21;8.50;;;4.85;;
65558;SDS011;52203;51.998;5.140;2023-04-30T06:33:46;8.57;;;4.35;;
65558;SDS011;52203;51.998;5.140;2023-04-30T06:36:12;8.57;;;4.68;;
65558;SDS011;52203;51.998;5.140;2023-04-30T06:38:38;8.70;;;4.90;;
65558;SDS011;52203;51.998;5.140;2023-04-30T06:41:05;7.07;;;4.35;;
65558;SDS011;52203;51.998;5.140;2023-04-30T06:43:31;6.38;;;4.35;;
65558;SDS011;52203;51.998;5.140;2023-04-30T06:45:56;7.28;;;4.63;;
65558;SDS011;52203;51.998;5.140;2023-04-30T06:48:22;11.60;;;4.93;;
65558;SDS011;52203;51.998;5.140;2023-04-30T06:50:47;8.07;;;5.20;;
65558;SDS011;52203;51.998;5.140;2023-04-30T06:53:13;7.95;;;4.43;;
65558;SDS011;52203;51.998;5.140;2023-04-30T06:55:40;7.63;;;4.80;;
65558;SDS011;52203;51.998;5.140;2023-04-30T06:58:06;7.68;;;4.55;;
65558;SDS011;52203;51.998;5.140;2023-04-30T07:00:32;9.43;;;4.82;;
65558;SDS011;52203;51.998;5.140;2023-04-30T07:02:58;7.43;;;4.35;;
65558;SDS011;52203;51.998;5.140;2023-04-30T07:05:26;8.48;;;5.15;;
65558;SDS011;52203;51.998;5.140;2023-04-30T07:07:53;8.32;;;4.38;;
65558;SDS011;52203;51.998;5.140;2023-04-30T07:10:18;9.23;;;4.47;;
65558;SDS011;52203;51.998;5.140;2023-04-30T07:12:44;9.38;;;4.82;;
65558;SDS011;52203;51.998;5.140;2023-04-30T07:15:10;7.60;;;4.72;;
65558;SDS011;52203;51.998;5.140;2023-04-30T07:17:35;8.88;;;5.10;;
65558;SDS011;52203;51.998;5.140;2023-04-30T07:20:02;9.98;;;4.95;;
65558;SDS011;52203;51.998;5.140;2023-04-30T07:22:29;8.60;;;4.50;;
65558;SDS011;52203;51.998;5.140;2023-04-30T07:24:55;8.55;;;5.22;;
65558;SDS011;52203;51.998;5.140;2023-04-30T07:27:21;10.07;;;4.90;;
65558;SDS011;52203;51.998;5.140;2023-04-30T07:29:46;8.70;;;5.03;;
65558;SDS011;52203;51.998;5.140;2023-04-30T07:32:12;10.93;;;5.03;;
65558;SDS011;52203;51.998;5.140;2023-04-30T07:34:39;10.52;;;4.75;;
65558;SDS011;52203;51.998;5.140;2023-04-30T07:37:04;7.93;;;4.40;;
65558;SDS011;52203;51.998;5.140;2023-04-30T07:39:30;8.25;;;4.60;;
65558;SDS011;52203;51.998;5.140;2023-04-30T07:41:55;7.40;;;5.07;;
65558;SDS011;52203;51.998;5.140;2023-04-30T07:44:21;8.40;;;5.10;;
65558;SDS011;52203;51.998;5.140;2023-04-30T07:46:46;7.65;;;5.05;;
65558;SDS011;52203;51.998;5.140;2023-04-30T07:49:12;9.65;;;5.03;;
65558;SDS011;52203;51.998;5.140;2023-04-30T07:51:38;10.60;;;5.07;;
65558;SDS011;52203;51.998;5.140;2023-04-30T07:54:03;9.57;;;5.28;;
65558;SDS011;52203;51.998;5.140;2023-04-30T07:56:29;8.25;;;4.90;;
65558;SDS011;52203;51.998;5.140;2023-04-30T07:58:55;8.75;;;4.97;;
65558;SDS011;52203;51.998;5.140;2023-04-30T08:01:21;11.50;;;5.28;;
65558;SDS011;52203;51.998;5.140;2023-04-30T08:03:47;10.50;;;5.40;;
65558;SDS011;52203;51.998;5.140;2023-04-30T08:06:12;9.30;;;5.18;;
65558;SDS011;52203;51.998;5.140;2023-04-30T08:08:38;8.70;;;5.63;;
65558;SDS011;52203;51.998;5.140;2023-04-30T08:11:03;9.57;;;5.00;;
65558;SDS011;52203;51.998;5.140;2023-04-30T08:13:29;8.50;;;5.72;;
65558;SDS011;52203;51.998;5.140;2023-04-30T08:15:55;9.50;;;5.50;;
65558;SDS011;52203;51.998;5.140;2023-04-30T08:18:20;9.85;;;6.00;;
65558;SDS011;52203;51.998;5.140;2023-04-30T08:20:46;11.20;;;5.22;;
65558;SDS011;52203;51.998;5.140;2023-04-30T08:23:12;8.75;;;5.65;;
65558;SDS011;52203;51.998;5.140;2023-04-30T08:25:39;9.90;;;5.70;;
65558;SDS011;52203;51.998;5.140;2023-04-30T08:28:11;9.93;;;5.72;;
65558;SDS011;52203;51.998;5.140;2023-04-30T08:30:37;8.90;;;4.82;;
65558;SDS011;52203;51.998;5.140;2023-04-30T08:33:03;9.77;;;5.38;;
65558;SDS011;52203;51.998;5.140;2023-04-30T08:35:29;9.43;;;4.55;;
65558;SDS011;52203;51.998;5.140;2023-04-30T08:37:54;8.68;;;5.53;;
65558;SDS011;52203;51.998;5.140;2023-04-30T08:40:20;8.23;;;4.90;;
65558;SDS011;52203;51.998;5.140;2023-04-30T08:42:49;11.10;;;5.57;;
65558;SDS011;52203;51.998;5.140;2023-04-30T08:45:24;9.82;;;5.35;;
65558;SDS011;52203;51.998;5.140;2023-04-30T08:47:50;9.30;;;5.07;;
65558;SDS011;52203;51.998;5.140;2023-04-30T08:50:16;8.98;;;4.55;;
65558;SDS011;52203;51.998;5.140;2023-04-30T08:52:42;7.82;;;4.75;;
65558;SDS011;52203;51.998;5.140;2023-04-30T08:55:08;9.05;;;4.82;;
65558;SDS011;52203;51.998;5.140;2023-04-30T08:57:35;8.93;;;5.15;;
65558;SDS011;52203;51.998;5.140;2023-04-30T09:00:03;9.50;;;5.90;;
65558;SDS011;52203;51.998;5.140;2023-04-30T09:02:33;8.30;;;5.28;;
65558;SDS011;52203;51.998;5.140;2023-04-30T09:05:00;7.32;;;4.72;;
65558;SDS011;52203;51.998;5.140;2023-04-30T09:07:25;9.05;;;5.25;;
65558;SDS011;52203;51.998;5.140;2023-04-30T09:09:53;8.23;;;5.15;;
65558;SDS011;52203;51.998;5.140;2023-04-30T09:12:19;7.40;;;5.05;;
65558;SDS011;52203;51.998;5.140;2023-04-30T09:14:57;9.70;;;5.10;;
65558;SDS011;52203;51.998;5.140;2023-04-30T09:17:26;8.70;;;5.18;;
65558;SDS011;52203;51.998;5.140;2023-04-30T09:19:53;8.45;;;4.97;;
65558;SDS011;52203;51.998;5.140;2023-04-30T09:22:23;8.23;;;3.47;;
65558;SDS011;52203;51.998;5.140;2023-04-30T09:24:49;7.93;;;4.28;;
65558;SDS011;52203;51.998;5.140;2023-04-30T09:27:16;7.78;;;4.75;;
65558;SDS011;52203;51.998;5.140;2023-04-30T09:29:43;7.10;;;4.35;;
65558;SDS011;52203;51.998;5.140;2023-04-30T09:32:09;7.28;;;4.22;;
65558;SDS011;52203;51.998;5.140;2023-04-30T09:34:35;7.68;;;4.05;;
65558;SDS011;52203;51.998;5.140;2023-04-30T09:37:01;7.88;;;4.40;;
65558;SDS011;52203;51.998;5.140;2023-04-30T09:39:28;7.40;;;4.10;;
65558;SDS011;52203;51.998;5.140;2023-04-30T09:42:16;9.68;;;4.38;;
65558;SDS011;52203;51.998;5.140;2023-04-30T09:44:41;7.18;;;4.35;;
65558;SDS011;52203;51.998;5.140;2023-04-30T09:47:10;6.70;;;3.78;;
65558;SDS011;52203;51.998;5.140;2023-04-30T09:49:40;6.40;;;3.60;;
65558;SDS011;52203;51.998;5.140;2023-04-30T09:52:07;7.13;;;3.50;;
65558;SDS011;52203;51.998;5.140;2023-04-30T09:54:33;6.45;;;3.78;;
65558;SDS011;52203;51.998;5.140;2023-04-30T09:57:00;5.82;;;3.67;;
65558;SDS011;52203;51.998;5.140;2023-04-30T09:59:28;6.78;;;3.80;;
65558;SDS011;52203;51.998;5.140;2023-04-30T10:02:00;6.20;;;3.72;;
65558;SDS011;52203;51.998;5.140;2023-04-30T10:04:32;6.30;;;3.60;;
65558;SDS011;52203;51.998;5.140;2023-04-30T10:07:03;6.03;;;3.65;;
65558;SDS011;52203;51.998;5.140;2023-04-30T10:09:41;6.43;;;3.80;;
65558;SDS011;52203;51.998;5.140;2023-04-30T10:12:25;6.50;;;3.30;;
65558;SDS011;52203;51.998;5.140;2023-04-30T10:14:58;5.90;;;3.60;;
65558;SDS011;52203;51.998;5.140;2023-04-30T10:17:31;5.47;;;3.47;;
65558;SDS011;52203;51.998;5.140;2023-04-30T10:20:05;6.18;;;3.47;;
65558;SDS011;52203;51.998;5.140;2023-04-30T10:22:33;4.63;;;3.13;;
65558;SDS011;52203;51.998;5.140;2023-04-30T10:24:59;5.07;;;3.20;;
65558;SDS011;52203;51.998;5.140;2023-04-30T10:27:29;5.65;;;3.40;;
65558;SDS011;52203;51.998;5.140;2023-04-30T10:30:00;5.65;;;3.90;;
65558;SDS011;52203;51.998;5.140;2023-04-30T10:32:29;8.18;;;3.50;;
65558;SDS011;52203;51.998;5.140;2023-04-30T10:35:14;5.38;;;3.30;;
65558;SDS011;52203;51.998;5.140;2023-04-30T10:37:58;6.18;;;3.60;;
65558;SDS011;52203;51.998;5.140;2023-04-30T10:40:38;5.68;;;3.53;;
65558;SDS011;52203;51.998;5.140;2023-04-30T10:43:04;5.50;;;3.30;;
65558;SDS011;52203;51.998;5.140;2023-04-30T10:45:33;8.15;;;4.30;;
65558;SDS011;52203;51.998;5.140;2023-04-30T10:48:02;6.32;;;4.05;;
65558;SDS011;52203;51.998;5.140;2023-04-30T10:50:29;6.65;;;3.95;;
65558;SDS011;52203;51.998;5.140;2023-04-30T10:53:01;6.35;;;3.95;;
65558;SDS011;52203;51.998;5.140;2023-04-30T10:57:54;7.47;;;4.22;;
65558;SDS011;52203;51.998;5.140;2023-04-30T11:00:26;7.00;;;3.80;;
65558;SDS011;52203;51.998;5.140;2023-04-30T11:02:57;6.40;;;4.00;;
65558;SDS011;52203;51.998;5.140;2023-04-30T11:05:37;6.22;;;3.92;;
65558;SDS011;52203;51.998;5.140;2023-04-30T11:08:03;5.97;;;3.70;;
65558;SDS011;52203;51.998;5.140;2023-04-30T11:10:33;8.07;;;4.00;;
65558;SDS011;52203;51.998;5.140;2023-04-30T11:13:02;5.82;;;3.88;;
65558;SDS011;52203;51.998;5.140;2023-04-30T11:15:41;9.18;;;3.95;;
65558;SDS011;52203;51.998;5.140;2023-04-30T11:18:09;5.20;;;3.42;;
65558;SDS011;52203;51.998;5.140;2023-04-30T11:20:38;6.85;;;3.80;;
65558;SDS011;52203;51.998;5.140;2023-04-30T11:23:12;5.20;;;3.30;;
65558;SDS011;52203;51.998;5.140;2023-04-30T11:25:46;5.93;;;3.55;;
65558;SDS011;52203;51.998;5.140;2023-04-30T11:28:13;4.80;;;3.40;;
65558;SDS011;52203;51.998;5.140;2023-04-30T11:30:50;6.32;;;3.22;;
65558;SDS011;52203;51.998;5.140;2023-04-30T11:33:20;5.95;;;3.45;;
65558;SDS011;52203;51.998;5.140;2023-04-30T11:35:51;5.68;;;3.75;;
65558;SDS011;52203;51.998;5.140;2023-04-30T11:38:18;5.80;;;3.17;;
65558;SDS011;52203;51.998;5.140;2023-04-30T11:40:46;5.68;;;3.35;;
65558;SDS011;52203;51.998;5.140;2023-04-30T11:43:21;6.07;;;3.55;;
65558;SDS011;52203;51.998;5.140;2023-04-30T11:46:24;6.70;;;3.15;;
65558;SDS011;52203;51.998;5.140;2023-04-30T11:48:43;7.05;;;3.28;;
65558;SDS011;52203;51.998;5.140;2023-04-30T11:51:13;6.85;;;3.63;;
65558;SDS011;52203;51.998;5.140;2023-04-30T11:53:39;4.38;;;3.00;;
65558;SDS011;52203;51.998;5.140;2023-04-30T11:56:05;6.50;;;3.25;;
65558;SDS011;52203;51.998;5.140;2023-04-30T11:58:34;5.63;;;3.17;;
65558;SDS011;52203;51.998;5.140;2023-04-30T12:01:02;5.75;;;3.17;;
65558;SDS011;52203;51.998;5.140;2023-04-30T12:03:29;4.47;;;3.22;;
65558;SDS011;52203;51.998;5.140;2023-04-30T12:05:56;5.95;;;3.30;;
65558;SDS011;52203;51.998;5.140;2023-04-30T12:08:21;4.55;;;2.90;;
65558;SDS011;52203;51.998;5.140;2023-04-30T12:10:48;5.68;;;2.85;;
65558;SDS011;52203;51.998;5.140;2023-04-30T12:13:13;5.57;;;3.10;;
65558;SDS011;52203;51.998;5.140;2023-04-30T12:15:40;5.05;;;2.92;;
65558;SDS011;52203;51.998;5.140;2023-04-30T12:18:10;4.95;;;2.97;;
65558;SDS011;52203;51.998;5.140;2023-04-30T12:20:37;4.32;;;2.80;;
65558;SDS011;52203;51.998;5.140;2023-04-30T12:23:03;4.45;;;3.08;;
65558;SDS011;52203;51.998;5.140;2023-04-30T12:25:30;5.07;;;3.20;;
65558;SDS011;52203;51.998;5.140;2023-04-30T12:27:57;5.10;;;2.85;;
65558;SDS011;52203;51.998;5.140;2023-04-30T12:30:24;5.50;;;2.58;;
65558;SDS011;52203;51.998;5.140;2023-04-30T12:32:52;4.50;;;2.60;;
65558;SDS011;52203;51.998;5.140;2023-04-30T12:35:21;4.28;;;2.60;;
65558;SDS011;52203;51.998;5.140;2023-04-30T12:37:49;4.75;;;3.13;;
65558;SDS011;52203;51.998;5.140;2023-04-30T12:40:16;4.40;;;2.47;;
65558;SDS011;52203;51.998;5.140;2023-04-30T12:42:43;5.43;;;2.08;;
65558;SDS011;52203;51.998;5.140;2023-04-30T12:45:11;4.65;;;2.08;;
65558;SDS011;52203;51.998;5.140;2023-04-30T12:47:40;3.00;;;2.13;;
65558;SDS011;52203;51.998;5.140;2023-04-30T12:50:09;4.47;;;2.20;;
65558;SDS011;52203;51.998;5.140;2023-04-30T12:52:39;4.85;;;2.40;;
65558;SDS011;52203;51.998;5.140;2023-04-30T12:55:14;3.40;;;2.15;;
65558;SDS011;52203;51.998;5.140;2023-04-30T12:57:49;2.72;;;1.70;;
65558;SDS011;52203;51.998;5.140;2023-04-30T13:00:28;3.92;;;1.60;;
65558;SDS011;52203;51.998;5.140;2023-04-30T13:02:54;4.38;;;1.52;;
65558;SDS011;52203;51.998;5.140;2023-04-30T13:05:20;2.90;;;1.60;;
65558;SDS011;52203;51.998;5.140;2023-04-30T13:07:45;3.58;;;1.90;;
65558;SDS011;52203;51.998;5.140;2023-04-30T13:10:12;3.17;;;1.48;;
65558;SDS011;52203;51.998;5.140;2023-04-30T13:12:38;3.13;;;1.20;;
65558;SDS011;52203;51.998;5.140;2023-04-30T13:15:03;2.83;;;1.60;;
65558;SDS011;52203;51.998;5.140;2023-04-30T13:17:29;3.75;;;1.88;;
65558;SDS011;52203;51.998;5.140;2023-04-30T13:19:55;3.90;;;1.92;;
65558;SDS011;52203;51.998;5.140;2023-04-30T13:22:21;3.20;;;2.10;;
65558;SDS011;52203;51.998;5.140;2023-04-30T13:24:47;3.03;;;1.73;;
65558;SDS011;52203;51.998;5.140;2023-04-30T13:27:13;3.35;;;2.33;;
65558;SDS011;52203;51.998;5.140;2023-04-30T13:29:39;4.32;;;2.00;;
65558;SDS011;52203;51.998;5.140;2023-04-30T13:32:04;3.72;;;1.95;;
65558;SDS011;52203;51.998;5.140;2023-04-30T13:34:30;3.65;;;2.13;;
65558;SDS011;52203;51.998;5.140;2023-04-30T13:36:55;3.65;;;1.98;;
65558;SDS011;52203;51.998;5.140;2023-04-30T13:39:21;4.05;;;1.90;;
65558;SDS011;52203;51.998;5.140;2023-04-30T13:41:47;4.32;;;2.10;;
65558;SDS011;52203;51.998;5.140;2023-04-30T13:44:13;3.45;;;1.88;;
65558;SDS011;52203;51.998;5.140;2023-04-30T13:46:38;3.13;;;1.80;;
65558;SDS011;52203;51.998;5.140;2023-04-30T13:49:04;4.03;;;2.20;;
65558;SDS011;52203;51.998;5.140;2023-04-30T13:51:29;3.75;;;1.80;;
65558;SDS011;52203;51.998;5.140;2023-04-30T13:53:55;3.80;;;2.20;;
65558;SDS011;52203;51.998;5.140;2023-04-30T13:56:21;2.75;;;1.63;;
65558;SDS011;52203;51.998;5.140;2023-04-30T13:58:46;3.15;;;1.77;;
65558;SDS011;52203;51.998;5.140;2023-04-30T14:01:12;4.45;;;2.00;;
65558;SDS011;52203;51.998;5.140;2023-04-30T14:03:38;4.50;;;2.10;;
65558;SDS011;52203;51.998;5.140;2023-04-30T14:06:03;3.75;;;2.05;;
65558;SDS011;52203;51.998;5.140;2023-04-30T14:08:29;4.60;;;2.00;;
65558;SDS011;52203;51.998;5.140;2023-04-30T14:10:55;3.85;;;2.00;;
65558;SDS011;52203;51.998;5.140;2023-04-30T14:13:21;2.80;;;1.77;;
65558;SDS011;52203;51.998;5.140;2023-04-30T14:15:46;3.28;;;1.90;;
65558;SDS011;52203;51.998;5.140;2023-04-30T14:18:12;4.63;;;1.80;;
65558;SDS011;52203;51.998;5.140;2023-04-30T14:20:38;3.85;;;1.80;;
65558;SDS011;52203;51.998;5.140;2023-04-30T14:23:03;3.83;;;1.88;;
65558;SDS011;52203;51.998;5.140;2023-04-30T14:25:29;2.70;;;1.75;;
65558;SDS011;52203;51.998;5.140;2023-04-30T14:27:55;5.28;;;2.20;;
65558;SDS011;52203;51.998;5.140;2023-04-30T14:30:20;2.83;;;1.88;;
65558;SDS011;52203;51.998;5.140;2023-04-30T14:32:46;5.10;;;2.30;;
65558;SDS011;52203;51.998;5.140;2023-04-30T14:35:11;3.95;;;2.08;;
65558;SDS011;52203;51.998;5.140;2023-04-30T14:37:37;2.50;;;1.65;;
65558;SDS011;52203;51.998;5.140;2023-04-30T14:40:02;3.67;;;2.15;;
65558;SDS011;52203;51.998;5.140;2023-04-30T14:42:30;4.35;;;2.15;;
65558;SDS011;52203;51.998;5.140;2023-04-30T14:44:57;3.83;;;2.03;;
65558;SDS011;52203;51.998;5.140;2023-04-30T14:47:23;4.75;;;1.80;;
65558;SDS011;52203;51.998;5.140;2023-04-30T14:49:51;5.00;;;2.10;;
65558;SDS011;52203;51.998;5.140;2023-04-30T14:52:17;3.40;;;1.85;;
65558;SDS011;52203;51.998;5.140;2023-04-30T14:54:44;3.58;;;1.90;;
65558;SDS011;52203;51.998;5.140;2023-04-30T14:57:09;3.17;;;1.60;;
65558;SDS011;52203;51.998;5.140;2023-04-30T14:59:35;3.45;;;1.67;;
65558;SDS011;52203;51.998;5.140;2023-04-30T15:02:03;2.45;;;1.48;;
65558;SDS011;52203;51.998;5.140;2023-04-30T15:04:29;2.50;;;1.50;;